createdAt,value
2022-11-18T00:00:13.660Z,98371.81
2022-11-18T00:02:59.882Z,98372.84
2022-11-18T00:05:58.132Z,98378.25
2022-11-18T00:08:44.491Z,98377.50
2022-11-18T00:11:49.006Z,98371.56
2022-11-18T00:14:35.133Z,98361.00
2022-11-18T00:17:20.982Z,98365.25
2022-11-18T00:20:07.057Z,98371.34
2022-11-18T00:22:52.697Z,98365.09
2022-11-18T00:25:39.016Z,98368.56
2022-11-18T00:28:24.825Z,98365.44
2022-11-18T00:31:12.131Z,98360.63
2022-11-18T00:33:58.227Z,98358.66
2022-11-18T00:36:44.792Z,98352.84
2022-11-18T00:39:30.608Z,98341.75
2022-11-18T00:42:35.203Z,98352.19
2022-11-18T00:45:21.916Z,98343.78
2022-11-18T00:48:08.011Z,98340.47
2022-11-18T00:50:54.987Z,98344.97
2022-11-18T00:53:41.085Z,98349.09
2022-11-18T00:56:27.022Z,98359.00
2022-11-18T00:59:13.265Z,98357.09
2022-11-18T01:01:59.133Z,98354.50
2022-11-18T01:04:45.420Z,98359.06
2022-11-18T01:07:31.232Z,98356.75
2022-11-18T01:10:17.541Z,98353.03
2022-11-18T01:13:23.684Z,98342.09
2022-11-18T01:16:09.899Z,98338.00
2022-11-18T01:18:55.801Z,98323.69
2022-11-18T01:21:42.431Z,98320.41
2022-11-18T01:24:28.574Z,98323.06
2022-11-18T01:27:14.492Z,98317.78
2022-11-18T01:30:00.288Z,98307.97
2022-11-18T01:32:46.534Z,98305.06
2022-11-18T01:35:42.654Z,98312.25
2022-11-18T01:38:28.547Z,98312.25
2022-11-18T01:41:14.654Z,98310.03
2022-11-18T01:44:00.680Z,98323.66
2022-11-18T01:46:46.569Z,98316.34
2022-11-18T01:49:33.050Z,98327.78
2022-11-18T01:52:18.778Z,98325.88
2022-11-18T01:55:06.767Z,98342.09
2022-11-18T01:57:54.048Z,98339.59
2022-11-18T02:00:39.999Z,98341.50
2022-11-18T02:03:25.925Z,98339.25
2022-11-18T02:06:12.407Z,98338.41
2022-11-18T02:08:58.141Z,98341.91
2022-11-18T02:11:56.280Z,98337.13
2022-11-18T02:14:43.319Z,98326.69
2022-11-18T02:17:32.137Z,98323.72
2022-11-18T02:20:29.015Z,98313.38
2022-11-18T02:23:21.219Z,98311.75
2022-11-18T02:26:16.445Z,98303.34
2022-11-18T02:29:09.747Z,98305.28
2022-11-18T02:31:57.313Z,98301.22
2022-11-18T02:35:02.681Z,98300.25
2022-11-18T02:37:55.328Z,98284.25
2022-11-18T02:40:42.985Z,98288.34
2022-11-18T02:43:36.906Z,98263.41
2022-11-18T02:46:35.901Z,98263.34
2022-11-18T02:49:22.825Z,98260.72
2022-11-18T02:52:08.814Z,98256.22
2022-11-18T02:54:54.637Z,98252.22
2022-11-18T02:57:40.410Z,98256.03
2022-11-18T03:00:26.126Z,98268.59
2022-11-18T03:03:24.718Z,98264.84
2022-11-18T03:06:10.502Z,98268.38
2022-11-18T03:09:11.111Z,98269.19
2022-11-18T03:12:01.575Z,98269.50
2022-11-18T03:15:06.322Z,98275.59
2022-11-18T03:17:52.310Z,98288.09
2022-11-18T03:20:39.190Z,98281.53
2022-11-18T03:23:29.234Z,98280.25
2022-11-18T03:26:19.794Z,98285.72
2022-11-18T03:29:06.775Z,98298.00
2022-11-18T03:31:54.607Z,98295.00
2022-11-18T03:34:41.586Z,98302.84
2022-11-18T03:37:27.860Z,98296.09
2022-11-18T03:40:23.696Z,98291.91
2022-11-18T03:43:11.025Z,98288.63
2022-11-18T03:45:59.724Z,98298.47
2022-11-18T03:48:48.183Z,98304.72
2022-11-18T03:51:36.299Z,98307.50
2022-11-18T03:54:22.513Z,98299.56
2022-11-18T03:57:20.390Z,98307.00
2022-11-18T04:00:07.685Z,98290.94
2022-11-18T04:02:53.866Z,98280.44
2022-11-18T04:05:40.804Z,98282.34
2022-11-18T04:08:27.667Z,98270.69
2022-11-18T04:11:37.351Z,98268.59
2022-11-18T04:14:23.457Z,98255.75
2022-11-18T04:17:10.999Z,98256.81
2022-11-18T04:19:57.183Z,98234.41
2022-11-18T04:22:43.103Z,98232.41
2022-11-18T04:25:28.856Z,98231.25
2022-11-18T04:28:14.789Z,98223.81
2022-11-18T04:31:01.206Z,98208.69
2022-11-18T04:33:46.970Z,98218.97
2022-11-18T04:36:32.804Z,98218.88
2022-11-18T04:39:19.070Z,98222.22
2022-11-18T04:42:05.179Z,98222.56
2022-11-18T04:44:50.953Z,98227.44
2022-11-18T04:47:43.361Z,98241.88
2022-11-18T04:50:36.918Z,98249.03
2022-11-18T04:53:24.253Z,98255.16
2022-11-18T04:56:13.208Z,98261.31
2022-11-18T04:59:08.951Z,98259.94
2022-11-18T05:01:59.575Z,98256.59
2022-11-18T05:04:45.832Z,98246.75
2022-11-18T05:07:31.986Z,98247.78
2022-11-18T05:10:18.125Z,98237.59
2022-11-18T05:13:23.965Z,98225.00
2022-11-18T05:16:12.841Z,98232.00
2022-11-18T05:19:12.137Z,98218.81
2022-11-18T05:22:09.542Z,98216.25
2022-11-18T05:24:59.404Z,98220.22
2022-11-18T05:27:45.850Z,98222.34
2022-11-18T05:30:33.523Z,98219.84
2022-11-18T05:33:39.573Z,98227.06
2022-11-18T05:36:25.969Z,98237.28
2022-11-18T05:39:20.838Z,98228.62
2022-11-18T05:42:25.883Z,98215.84
2022-11-18T05:45:11.915Z,98216.06
2022-11-18T05:48:00.857Z,98219.59
2022-11-18T05:50:47.987Z,98229.72
2022-11-18T05:53:33.624Z,98223.66
2022-11-18T05:56:24.444Z,98227.16
2022-11-18T05:59:10.423Z,98221.66
2022-11-18T06:02:00.946Z,98233.56
2022-11-18T06:04:48.741Z,98233.91
2022-11-18T06:07:36.003Z,98238.94
2022-11-18T06:10:23.111Z,98235.13
2022-11-18T06:13:09.416Z,98236.06
2022-11-18T06:15:55.598Z,98230.31
2022-11-18T06:18:41.497Z,98218.72
2022-11-18T06:21:27.662Z,98226.25
2022-11-18T06:24:13.633Z,98216.81
2022-11-18T06:26:59.881Z,98212.91
2022-11-18T06:29:45.423Z,98212.66
2022-11-18T06:32:31.696Z,98207.94
2022-11-18T06:35:17.603Z,98205.75
2022-11-18T06:38:03.963Z,98201.19
2022-11-18T06:40:49.822Z,98205.88
2022-11-18T06:43:41.937Z,98203.47
2022-11-18T06:46:46.646Z,98211.59
2022-11-18T06:49:33.095Z,98225.03
2022-11-18T06:52:18.736Z,98227.09
2022-11-18T06:55:07.280Z,98222.78
2022-11-18T06:57:52.966Z,98224.91
2022-11-18T07:00:39.288Z,98222.31
2022-11-18T07:03:25.041Z,98215.22
2022-11-18T07:06:11.919Z,98215.88
2022-11-18T07:08:57.692Z,98220.94
2022-11-18T07:11:43.957Z,98221.84
2022-11-18T07:14:29.970Z,98224.25
2022-11-18T07:17:15.955Z,98221.81
2022-11-18T07:20:01.885Z,98207.47
2022-11-18T07:22:48.273Z,98211.94
2022-11-18T07:25:34.216Z,98206.56
2022-11-18T07:28:20.574Z,98205.31
2022-11-18T07:31:07.342Z,98207.12
2022-11-18T07:33:56.095Z,98202.09
2022-11-18T07:36:42.053Z,98191.81
2022-11-18T07:39:28.341Z,98191.62
2022-11-18T07:42:14.180Z,98198.81
2022-11-18T07:45:00.560Z,98198.91
2022-11-18T07:47:46.293Z,98194.72
2022-11-18T07:50:32.247Z,98190.00
2022-11-18T07:53:18.149Z,98185.13
2022-11-18T07:56:04.956Z,98185.69
2022-11-18T07:58:54.487Z,98191.44
2022-11-18T08:01:40.763Z,98186.72
2022-11-18T08:04:26.943Z,98189.81
2022-11-18T08:07:14.110Z,98186.47
2022-11-18T08:10:00.247Z,98191.88
2022-11-18T08:12:45.966Z,98183.19
2022-11-18T08:15:31.824Z,98177.13
2022-11-18T08:18:17.777Z,98178.84
2022-11-18T08:21:04.404Z,98172.34
2022-11-18T08:23:54.074Z,98171.69
2022-11-18T08:26:40.422Z,98178.06
2022-11-18T08:29:27.738Z,98177.94
2022-11-18T08:32:14.147Z,98166.63
2022-11-18T08:35:00.203Z,98166.31
2022-11-18T08:37:46.389Z,98168.47
2022-11-18T08:40:32.285Z,98158.34
2022-11-18T08:43:18.584Z,98150.81
2022-11-18T08:46:04.576Z,98142.69
2022-11-18T08:48:51.067Z,98138.72
2022-11-18T08:51:36.794Z,98140.22
2022-11-18T08:54:23.357Z,98133.84
2022-11-18T08:57:09.621Z,98125.16
2022-11-18T08:59:55.522Z,98128.00
2022-11-18T09:02:41.387Z,98138.59
2022-11-18T09:05:27.752Z,98141.47
2022-11-18T09:08:13.554Z,98145.69
2022-11-18T09:10:59.547Z,98154.09
2022-11-18T09:14:25.903Z,98156.25
2022-11-18T09:16:51.458Z,98157.78
2022-11-18T09:19:47.201Z,98151.03
2022-11-18T09:22:36.052Z,98134.00
2022-11-18T09:25:22.000Z,98130.28
2022-11-18T09:28:08.733Z,98132.34
2022-11-18T09:30:55.097Z,98119.47
2022-11-18T09:33:41.528Z,98116.28
2022-11-18T09:36:27.666Z,98113.75
2022-11-18T09:39:13.682Z,98115.38
2022-11-18T09:42:02.237Z,98109.34
2022-11-18T09:44:52.047Z,98111.56
2022-11-18T09:47:37.620Z,98127.31
2022-11-18T09:53:29.554Z,98105.88
2022-11-18T09:56:16.326Z,98088.37
2022-11-18T09:59:03.397Z,98087.34
2022-11-18T10:01:49.852Z,98071.63
2022-11-18T10:04:37.260Z,98064.31
2022-11-18T10:07:26.493Z,98060.78
2022-11-18T10:10:14.337Z,98062.34
2022-11-18T10:13:05.838Z,98054.53
2022-11-18T10:16:04.528Z,98069.09
2022-11-18T10:19:09.013Z,98073.53
2022-11-18T10:22:01.112Z,98074.34
2022-11-18T10:24:49.829Z,98071.16
2022-11-18T10:27:40.353Z,98065.00
2022-11-18T10:30:26.308Z,98058.63
2022-11-18T10:33:19.870Z,98065.13
2022-11-18T10:36:15.073Z,98048.84
2022-11-18T10:39:11.837Z,98053.41
2022-11-18T10:42:00.532Z,98053.16
2022-11-18T10:44:46.849Z,98052.69
2022-11-18T10:47:33.816Z,98049.53
2022-11-18T10:50:33.508Z,98047.59
2022-11-18T10:53:36.083Z,98040.31
2022-11-18T10:56:22.157Z,98039.28
2022-11-18T10:59:11.386Z,98044.28
2022-11-18T11:01:58.625Z,98049.06
2022-11-18T11:04:48.469Z,98039.56
2022-11-18T11:07:37.908Z,98050.22
2022-11-18T11:10:24.249Z,98044.19
2022-11-18T11:13:13.229Z,98050.84
2022-11-18T11:16:00.367Z,98044.53
2022-11-18T11:18:46.768Z,98058.81
2022-11-18T11:21:32.662Z,98056.25
2022-11-18T11:24:19.406Z,98065.84
2022-11-18T11:30:34.345Z,98064.19
2022-11-18T11:33:20.950Z,98065.84
2022-11-18T11:36:07.363Z,98060.47
2022-11-18T11:38:59.900Z,98047.66
2022-11-18T11:42:07.849Z,98045.00
2022-11-18T11:44:53.725Z,98053.47
2022-11-18T11:47:50.081Z,98045.34
2022-11-18T11:51:03.343Z,98044.69
2022-11-18T11:54:03.504Z,98055.13
2022-11-18T11:56:51.640Z,98036.59
2022-11-18T11:59:37.852Z,98037.69
2022-11-18T12:02:30.068Z,98038.25
2022-11-18T12:05:34.502Z,98042.34
2022-11-18T12:08:28.934Z,98049.00
2022-11-18T12:11:26.188Z,98046.06
2022-11-18T12:14:11.643Z,98043.59
2022-11-18T12:17:05.191Z,98040.41
2022-11-18T12:19:50.672Z,98039.72
2022-11-18T12:23:16.012Z,98026.97
2022-11-18T12:26:11.050Z,98022.41
2022-11-18T12:28:57.285Z,98009.94
2022-11-18T12:31:42.924Z,98000.69
2022-11-18T12:34:34.933Z,97992.12
2022-11-18T12:37:20.483Z,97998.75
2022-11-18T12:40:08.217Z,98005.44
2022-11-18T12:43:12.857Z,97993.94
2022-11-18T12:45:59.170Z,98001.75
2022-11-18T12:48:44.740Z,98005.22
2022-11-18T12:51:40.428Z,98002.44
2022-11-18T12:54:26.206Z,98002.84
2022-11-18T12:57:15.160Z,98013.59
2022-11-18T13:00:19.728Z,98017.38
2022-11-18T13:03:05.679Z,98018.75
2022-11-18T13:05:57.468Z,98030.03
2022-11-18T13:08:43.909Z,98036.34
2022-11-18T13:11:45.441Z,98039.28
2022-11-18T13:14:54.308Z,98047.41
2022-11-18T13:17:52.227Z,98046.22
2022-11-18T13:20:38.703Z,98049.69
2022-11-18T13:23:48.064Z,98054.28
2022-11-18T13:26:34.967Z,98050.13
2022-11-18T13:29:28.980Z,98062.16
2022-11-18T13:32:22.441Z,98061.34
2022-11-18T13:35:11.221Z,98063.66
2022-11-18T13:37:58.602Z,98068.84
2022-11-18T13:41:04.387Z,98053.31
2022-11-18T13:43:53.985Z,98058.03
2022-11-18T13:46:40.200Z,98064.19
2022-11-18T13:49:50.120Z,98062.66
2022-11-18T13:52:55.314Z,98061.91
2022-11-18T13:55:44.389Z,98058.59
2022-11-18T13:59:10.555Z,98055.34
2022-11-18T14:01:46.733Z,98043.34
2022-11-18T14:04:33.226Z,98043.50
2022-11-18T14:07:22.148Z,98043.25
2022-11-18T14:10:08.925Z,98047.88
2022-11-18T14:12:59.259Z,98047.66
2022-11-18T14:15:45.814Z,98050.19
2022-11-18T14:18:32.519Z,98054.34
2022-11-18T14:21:31.701Z,98061.47
2022-11-18T14:24:18.015Z,98063.53
2022-11-18T14:27:23.172Z,98057.53
2022-11-18T14:30:28.437Z,98062.25
2022-11-18T14:33:21.644Z,98066.25
2022-11-18T14:36:10.562Z,98061.19
2022-11-18T14:39:25.845Z,98055.06
2022-11-18T14:42:02.444Z,98053.59
2022-11-18T14:44:48.452Z,98058.91
2022-11-18T14:47:34.267Z,98057.75
2022-11-18T14:50:20.278Z,98059.47
2022-11-18T14:53:06.233Z,98055.34
2022-11-18T14:55:52.779Z,98046.66
2022-11-18T14:58:38.448Z,98054.56
2022-11-18T15:01:29.281Z,98059.88
2022-11-18T15:04:17.818Z,98051.03
2022-11-18T15:07:04.104Z,98051.31
2022-11-18T15:09:49.946Z,98054.88
2022-11-18T15:12:36.585Z,98055.00
2022-11-18T15:15:22.371Z,98057.94
2022-11-18T15:18:09.004Z,98061.16
2022-11-18T15:20:54.907Z,98062.41
2022-11-18T15:23:41.398Z,98055.41
2022-11-18T15:26:35.782Z,98061.22
2022-11-18T15:29:23.872Z,98063.19
2022-11-18T15:32:09.488Z,98061.72
2022-11-18T15:34:55.954Z,98065.59
2022-11-18T15:37:41.830Z,98062.50
2022-11-18T15:40:27.892Z,98070.75
2022-11-18T15:43:13.652Z,98071.53
2022-11-18T15:46:00.205Z,98069.59
2022-11-18T15:48:46.031Z,98073.00
2022-11-18T15:51:33.307Z,98070.97
2022-11-18T15:54:19.892Z,98076.16
2022-11-18T15:57:06.488Z,98078.03
2022-11-18T15:59:52.308Z,98085.16
2022-11-18T16:02:38.302Z,98088.63
2022-11-18T16:05:24.662Z,98083.94
2022-11-18T16:08:10.609Z,98092.81
2022-11-18T16:11:15.799Z,98094.19
2022-11-18T16:14:02.276Z,98096.47
2022-11-18T16:16:49.049Z,98094.81
2022-11-18T16:19:34.812Z,98091.59
2022-11-18T16:22:20.770Z,98089.78
2022-11-18T16:25:06.647Z,98092.00
2022-11-18T16:27:53.164Z,98089.63
2022-11-18T16:30:58.142Z,98088.84
2022-11-18T16:33:44.229Z,98087.97
2022-11-18T16:36:30.202Z,98096.37
2022-11-18T16:39:17.739Z,98090.69
2022-11-18T16:42:08.722Z,98113.84
2022-11-18T16:44:55.172Z,98115.22
2022-11-18T16:47:41.091Z,98115.03
2022-11-18T16:50:27.396Z,98107.81
2022-11-18T16:53:13.163Z,98116.75
2022-11-18T16:56:03.167Z,98119.03
2022-11-18T16:58:49.036Z,98122.94
2022-11-18T17:01:35.234Z,98117.87
2022-11-18T17:04:21.140Z,98120.72
2022-11-18T17:07:07.330Z,98125.34
2022-11-18T17:09:53.204Z,98128.94
2022-11-18T17:12:40.437Z,98128.31
2022-11-18T17:15:26.457Z,98138.59
2022-11-18T17:18:14.273Z,98132.88
2022-11-18T17:21:07.132Z,98143.94
2022-11-18T17:23:53.422Z,98145.78
2022-11-18T17:26:38.896Z,98151.28
2022-11-18T17:29:24.876Z,98145.03
2022-11-18T17:32:10.885Z,98138.47
2022-11-18T17:34:56.905Z,98146.31
2022-11-18T17:37:42.862Z,98146.22
2022-11-18T17:40:28.616Z,98148.53
2022-11-18T17:43:15.522Z,98157.31
2022-11-18T17:46:01.941Z,98153.75
2022-11-18T17:48:47.888Z,98163.03
2022-11-18T17:51:33.851Z,98168.31
2022-11-18T17:54:20.567Z,98165.59
2022-11-18T17:57:07.015Z,98155.31
2022-11-18T17:59:52.952Z,98164.50
2022-11-18T18:02:39.261Z,98162.53
2022-11-18T18:05:25.658Z,98177.56
2022-11-18T18:08:11.278Z,98170.34
2022-11-18T18:11:04.558Z,98189.59
2022-11-18T18:14:09.982Z,98185.91
2022-11-18T18:16:57.857Z,98184.94
2022-11-18T18:19:49.941Z,98188.47
2022-11-18T18:22:36.198Z,98194.72
2022-11-18T18:25:22.270Z,98200.31
2022-11-18T18:28:08.252Z,98204.03
2022-11-18T18:31:00.745Z,98207.22
2022-11-18T18:33:47.413Z,98197.63
2022-11-18T18:36:33.416Z,98208.19
2022-11-18T18:39:19.775Z,98210.28
2022-11-18T18:42:05.752Z,98211.63
2022-11-18T18:45:10.904Z,98216.03
2022-11-18T18:47:56.552Z,98222.75
2022-11-18T18:50:42.852Z,98218.91
2022-11-18T18:53:30.283Z,98218.09
2022-11-18T18:56:16.561Z,98237.16
2022-11-18T18:59:02.519Z,98226.28
2022-11-18T19:01:48.758Z,98232.19
2022-11-18T19:04:34.500Z,98238.28
2022-11-18T19:07:21.122Z,98240.19
2022-11-18T19:10:07.501Z,98245.78
2022-11-18T19:12:53.601Z,98249.97
2022-11-18T19:15:40.104Z,98257.44
2022-11-18T19:18:26.517Z,98257.59
2022-11-18T19:21:12.391Z,98259.78
2022-11-18T19:23:58.808Z,98265.59
2022-11-18T19:26:44.633Z,98277.38
2022-11-18T19:29:30.985Z,98271.75
2022-11-18T19:32:16.992Z,98283.28
2022-11-18T19:35:03.734Z,98280.03
2022-11-18T19:37:49.608Z,98278.50
2022-11-18T19:40:36.096Z,98284.88
2022-11-18T19:43:21.869Z,98299.09
2022-11-18T19:46:07.928Z,98300.72
2022-11-18T19:48:55.780Z,98306.97
2022-11-18T19:51:42.035Z,98318.34
2022-11-18T19:54:28.008Z,98319.78
2022-11-18T19:57:14.511Z,98325.66
2022-11-18T20:00:00.297Z,98336.12
2022-11-18T20:02:46.731Z,98344.34
2022-11-18T20:05:52.583Z,98339.13
2022-11-18T20:08:39.258Z,98352.47
2022-11-18T20:11:25.353Z,98347.94
2022-11-18T20:14:12.029Z,98343.84
2022-11-18T20:16:58.035Z,98362.63
2022-11-18T20:19:44.041Z,98353.81
2022-11-18T20:22:30.434Z,98365.47
2022-11-18T20:25:16.193Z,98380.38
2022-11-18T20:28:02.121Z,98383.78
2022-11-18T20:30:48.074Z,98383.72
2022-11-18T20:33:38.148Z,98393.50
2022-11-18T20:36:25.171Z,98397.53
2022-11-18T20:39:12.554Z,98400.19
2022-11-18T20:42:17.137Z,98403.81
2022-11-18T20:45:03.335Z,98406.66
2022-11-18T20:47:49.574Z,98425.88
2022-11-18T20:50:37.614Z,98423.31
2022-11-18T20:53:25.531Z,98423.06
2022-11-18T20:56:13.135Z,98437.69
2022-11-18T20:58:58.866Z,98439.88
2022-11-18T21:01:44.910Z,98440.16
2022-11-18T21:04:30.622Z,98454.75
2022-11-18T21:07:16.953Z,98463.19
2022-11-18T21:10:02.835Z,98460.78
2022-11-18T21:13:07.500Z,98472.44
2022-11-18T21:15:53.218Z,98478.25
2022-11-18T21:18:39.151Z,98482.00
2022-11-18T21:21:43.745Z,98500.03
2022-11-18T21:24:30.936Z,98504.12
2022-11-18T21:27:16.934Z,98505.03
2022-11-18T21:30:03.366Z,98515.88
2022-11-18T21:32:49.673Z,98517.25
2022-11-18T21:35:35.870Z,98524.06
2022-11-18T21:38:21.714Z,98532.09
2022-11-18T21:41:08.367Z,98533.50
2022-11-18T21:44:09.253Z,98536.69
2022-11-18T21:46:55.204Z,98561.41
2022-11-18T21:49:41.117Z,98552.75
2022-11-18T21:52:26.998Z,98547.47
2022-11-18T21:55:12.975Z,98544.03
2022-11-18T21:58:02.995Z,98550.31
2022-11-18T22:00:50.069Z,98557.19
2022-11-18T22:03:37.007Z,98553.97
2022-11-18T22:06:26.410Z,98563.19
2022-11-18T22:09:12.733Z,98555.34
2022-11-18T22:11:58.681Z,98565.03
2022-11-18T22:14:45.114Z,98569.25
2022-11-18T22:17:30.838Z,98562.31
2022-11-18T22:20:16.700Z,98568.28
2022-11-18T22:23:02.585Z,98564.53
2022-11-18T22:25:55.343Z,98566.53
2022-11-18T22:28:41.347Z,98575.31
2022-11-18T22:31:28.034Z,98575.91
2022-11-18T22:34:13.892Z,98576.63
2022-11-18T22:37:00.190Z,98577.41
2022-11-18T22:39:47.511Z,98590.78
2022-11-18T22:42:49.090Z,98589.13
2022-11-18T22:45:35.008Z,98586.56
2022-11-18T22:48:21.050Z,98597.78
2022-11-18T22:51:06.720Z,98613.66
2022-11-18T22:54:09.742Z,98614.19
2022-11-18T22:56:58.827Z,98603.66
2022-11-18T22:59:45.188Z,98605.16
2022-11-18T23:02:31.177Z,98606.97
2022-11-18T23:05:17.335Z,98616.03
2022-11-18T23:08:03.044Z,98604.00
2022-11-18T23:10:50.158Z,98615.38
2022-11-18T23:13:54.475Z,98608.91
2022-11-18T23:16:41.573Z,98616.13
2022-11-18T23:19:27.270Z,98611.28
2022-11-18T23:22:13.527Z,98609.50
2022-11-18T23:24:58.960Z,98617.75
2022-11-18T23:27:45.303Z,98615.00
2022-11-18T23:30:31.804Z,98617.94
2022-11-18T23:33:17.960Z,98625.91
2022-11-18T23:36:04.357Z,98636.22
2022-11-18T23:38:51.495Z,98642.91
2022-11-18T23:41:37.634Z,98655.69
2022-11-18T23:44:43.949Z,98658.34
2022-11-18T23:47:29.745Z,98655.22
2022-11-18T23:50:16.093Z,98658.91
2022-11-18T23:53:02.139Z,98665.34
2022-11-18T23:55:48.644Z,98668.66
2022-11-18T23:58:34.490Z,98661.88
